M I D A S
Marine Information and Data Acquisition System
Tripno 1270 of the Zeeleeuw from 2007-05-09 11:15:16 to 2007-05-09 14:30:53
Back to CruiseResearch ActivitiesStationsMapUnderway DataData graphs

EquipmentUnitsComment
TimeDGPSUTC
LatitudeDGPSDM.mWGS84
LongitudeDGPSDM.mWGS84
HeadingGyrodeg 
SOGDGPSknotsSpeed over ground
COGDGPSdegCourse over ground
DepthEcho soundermeters200 kHz
Missing or incorrect values are displayed as -999
Navigation data collected by the RV Zeeleeuw from 2007-05-09 11:14:07 to 2007-05-09 14:40:04
                                                                                    Next 1000 lines
Time Latitude Longitude Heading SOG COG Depth
2007-05-09 11:14:17 51°13.6 2°56.1 117.7 0.1 190 7
2007-05-09 11:14:22 51°13.6 2°56.1 116.4 0.1 223 7.2
2007-05-09 11:14:27 51°13.6 2°56.099 114.9 0.2 266 7.3
2007-05-09 11:14:32 51°13.6 2°56.099 113.7 0.2 267 7.3
2007-05-09 11:14:37 51°13.6 2°56.097 112.6 0.4 281 7.2
2007-05-09 11:14:42 51°13.6 2°56.096 112.2 0.7 284 7.4
2007-05-09 11:14:46 51°13.601 2°56.094 112 1 288 -999
2007-05-09 11:14:52 51°13.601 2°56.091 112 1.2 287 7.5
2007-05-09 11:14:57 51°13.602 2°56.088 112.4 1.5 289 7.7
2007-05-09 11:15:02 51°13.603 2°56.084 113.2 1.8 292 7.9
2007-05-09 11:15:07 51°13.604 2°56.08 114 2 292 4.9
2007-05-09 11:15:12 51°13.605 2°56.075 115.1 2.2 294 -999
2007-05-09 11:15:16 51°13.607 2°56.071 115.6 2.4 293 -999
2007-05-09 11:15:22 51°13.608 2°56.065 115.7 2.5 294 -999
2007-05-09 11:15:27 51°13.61 2°56.06 115.7 2.7 293 -999
2007-05-09 11:15:32 51°13.611 2°56.054 115.7 2.8 294 -999
2007-05-09 11:15:36 51°13.613 2°56.049 115.5 3 294 -999
2007-05-09 11:15:42 51°13.615 2°56.041 115.4 3.1 293 -999
2007-05-09 11:15:47 51°13.617 2°56.034 115.4 3.4 293 -999
2007-05-09 11:15:52 51°13.619 2°56.027 115.6 3.6 293 -999
2007-05-09 11:15:56 51°13.62 2°56.021 116.1 3.7 293 -999
2007-05-09 11:16:02 51°13.623 2°56.011 116.7 3.8 293 -999
2007-05-09 11:16:07 51°13.625 2°56.003 117.7 4 294 -999
2007-05-09 11:16:12 51°13.627 2°55.995 118.9 4.2 295 -999
2007-05-09 11:16:16 51°13.63 2°55.988 119.7 4.4 297 -999
2007-05-09 11:16:21 51°13.633 2°55.979 120.8 4.6 297 -999
2007-05-09 11:16:26 51°13.636 2°55.97 121.8 4.7 299 -999
2007-05-09 11:16:32 51°13.64 2°55.958 122.6 4.8 299 -999
2007-05-09 11:16:37 51°13.643 2°55.949 123.2 4.9 300 5.4
2007-05-09 11:16:42 51°13.647 2°55.939 123.5 5 300 -999
2007-05-09 11:16:47 51°13.65 2°55.929 123.8 5.1 301 -999
2007-05-09 11:16:52 51°13.654 2°55.92 123.9 5.2 301 -999
2007-05-09 11:16:57 51°13.658 2°55.91 123.9 5.2 301 -999
2007-05-09 11:17:02 51°13.662 2°55.9 123.8 5.3 301 -999
2007-05-09 11:17:07 51°13.665 2°55.889 123.2 5.4 301 -999
2007-05-09 11:17:12 51°13.669 2°55.88 122.5 5.2 300 -999
2007-05-09 11:17:17 51°13.672 2°55.87 121.3 5 300 -999
2007-05-09 11:17:22 51°13.675 2°55.861 120.1 4.8 299 -999
2007-05-09 11:17:27 51°13.678 2°55.852 118.3 4.6 297 -999
2007-05-09 11:17:32 51°13.681 2°55.843 116.6 4.3 296 -999
2007-05-09 11:17:37 51°13.683 2°55.835 115.1 4.2 294 8.8
2007-05-09 11:17:42 51°13.685 2°55.827 113.3 4 293 -999
2007-05-09 11:17:47 51°13.687 2°55.819 111.3 3.8 292 6.2
2007-05-09 11:17:52 51°13.689 2°55.812 110 3.7 291 9.1
2007-05-09 11:17:56 51°13.69 2°55.806 108.3 3.5 288 9.5
2007-05-09 11:18:01 51°13.691 2°55.799 106.2 3.3 287 9.6
2007-05-09 11:18:06 51°13.692 2°55.792 104.1 3.2 285 10
2007-05-09 11:18:12 51°13.694 2°55.784 102.1 3 284 10.4
2007-05-09 11:18:16 51°13.694 2°55.779 100.3 2.8 281 10.5
2007-05-09 11:18:21 51°13.695 2°55.773 98.4 2.6 282 10.6
2007-05-09 11:18:26 51°13.696 2°55.768 96.4 2.5 278 10.8
2007-05-09 11:18:32 51°13.696 2°55.762 94.5 2.3 277 11.2
2007-05-09 11:18:37 51°13.696 2°55.757 92.7 2.2 274 11.1
2007-05-09 11:18:41 51°13.696 2°55.753 90.8 2.2 274 11.3
2007-05-09 11:18:46 51°13.696 2°55.749 89.2 2 271 5.3
2007-05-09 11:18:52 51°13.697 2°55.744 87.7 1.7 275 -999
2007-05-09 11:18:57 51°13.697 2°55.741 86 1.3 272 10.9
2007-05-09 11:19:01 51°13.697 2°55.74 83.4 0.9 275 -999
2007-05-09 11:19:06 51°13.697 2°55.738 79.8 0.5 291 5
2007-05-09 11:19:12 51°13.698 2°55.738 74.8 0.3 319 -999
2007-05-09 11:19:16 51°13.698 2°55.738 69 0.3 348 10.9
2007-05-09 11:19:21 51°13.698 2°55.738 65.3 0.4 11 10.9
2007-05-09 11:19:26 51°13.699 2°55.738 61.8 0.5 17 11
2007-05-09 11:19:32 51°13.7 2°55.739 58.4 0.6 26 11.1
2007-05-09 11:19:36 51°13.701 2°55.739 54.4 0.7 25 11.6
2007-05-09 11:19:41 51°13.701 2°55.74 50.6 0.8 28 11.2
2007-05-09 11:19:46 51°13.703 2°55.741 46.8 1.1 28 11.3
2007-05-09 11:19:52 51°13.705 2°55.743 43.1 1.4 25 11.4
2007-05-09 11:19:56 51°13.706 2°55.744 38.6 1.7 21 11.4
2007-05-09 11:20:01 51°13.709 2°55.745 33.2 1.9 17 11.4
2007-05-09 11:20:07 51°13.713 2°55.746 27.1 2.3 10 11.4
2007-05-09 11:20:12 51°13.716 2°55.746 20.8 2.5 4 11.4
2007-05-09 11:20:17 51°13.72 2°55.746 13.1 2.9 359 -999
2007-05-09 11:20:21 51°13.724 2°55.745 6.7 3.3 351 11.2
2007-05-09 11:20:26 51°13.728 2°55.744 359.2 3.3 346 11.1
2007-05-09 11:20:32 51°13.734 2°55.741 353 3.2 339 10.9
2007-05-09 11:20:37 51°13.737 2°55.737 346.1 3.2 333 10.7
2007-05-09 11:20:41 51°13.741 2°55.734 340.2 3.5 330 10.4
2007-05-09 11:20:46 51°13.745 2°55.73 334.9 3.8 325 10.2
2007-05-09 11:20:52 51°13.751 2°55.724 330.3 4.1 325 10.2
2007-05-09 11:20:57 51°13.756 2°55.718 328.3 4.5 324 10
2007-05-09 11:21:01 51°13.76 2°55.713 328 4.7 324 9.7
2007-05-09 11:21:06 51°13.766 2°55.707 328.4 5.1 325 9.7
2007-05-09 11:21:11 51°13.772 2°55.7 329.3 5.3 326 9.9
2007-05-09 11:21:17 51°13.78 2°55.692 330.1 5.6 327 9.8
2007-05-09 11:21:22 51°13.787 2°55.685 331.1 5.8 328 9.6
2007-05-09 11:21:26 51°13.792 2°55.68 332.4 5.9 330 9.6
2007-05-09 11:21:32 51°13.801 2°55.672 333.5 6.2 331 9.5
2007-05-09 11:21:36 51°13.807 2°55.667 334.2 6.3 331 9.5
2007-05-09 11:21:42 51°13.817 2°55.658 334.3 6.5 331 9.6
2007-05-09 11:21:46 51°13.823 2°55.653 334.5 6.7 332 9.6
2007-05-09 11:21:52 51°13.833 2°55.644 334.9 6.9 332 9.8
2007-05-09 11:21:56 51°13.84 2°55.638 335.5 7 332 9.7
2007-05-09 11:22:02 51°13.851 2°55.63 336.2 7.1 334 9.8
2007-05-09 11:22:07 51°13.859 2°55.622 337.1 7.2 333 9.9
2007-05-09 11:22:12 51°13.869 2°55.615 337.1 7.4 334 9.8
2007-05-09 11:22:16 51°13.876 2°55.609 337.4 7.6 334 9.9
2007-05-09 11:22:21 51°13.886 2°55.602 338.5 7.8 336 10
2007-05-09 11:22:27 51°13.898 2°55.594 340.1 7.9 336 10.1
2007-05-09 11:22:32 51°13.909 2°55.586 341.1 8.2 335 10
2007-05-09 11:22:36 51°13.917 2°55.58 340.8 8.4 335 10.1
2007-05-09 11:22:41 51°13.928 2°55.572 339.7 8.4 336 10.1
2007-05-09 11:22:46 51°13.939 2°55.565 339.7 8.5 337 10.2
2007-05-09 11:22:52 51°13.952 2°55.556 340.8 8.6 337 10.2
2007-05-09 11:22:57 51°13.963 2°55.549 341.1 8.7 337 10.2
2007-05-09 11:23:01 51°13.972 2°55.543 341.2 8.7 337 10.2
2007-05-09 11:23:06 51°13.983 2°55.535 341.2 8.8 337 10.2
2007-05-09 11:23:12 51°13.997 2°55.526 341.1 8.9 337 10.2
2007-05-09 11:23:16 51°14.006 2°55.52 340.9 8.9 338 10.3
2007-05-09 11:23:21 51°14.017 2°55.512 341.3 9 338 -999
2007-05-09 11:23:26 51°14.029 2°55.505 341.7 9 338 10.3
2007-05-09 11:23:31 51°14.041 2°55.497 341.8 9 337 10.3
2007-05-09 11:23:36 51°14.052 2°55.489 341.7 9 336 10.6
2007-05-09 11:23:41 51°14.064 2°55.481 341.1 9.1 335 10.7
2007-05-09 11:23:46 51°14.075 2°55.472 340.4 9.1 335 10.7
2007-05-09 11:23:52 51°14.089 2°55.462 339.6 9.1 333 10.6
2007-05-09 11:23:56 51°14.098 2°55.454 338.6 9.1 333 10.7
2007-05-09 11:24:02 51°14.112 2°55.444 337.9 9.1 333 10.7
2007-05-09 11:24:07 51°14.123 2°55.435 337.6 9.1 334 10.7
2007-05-09 11:24:12 51°14.134 2°55.426 337.6 9.1 334 10.7
2007-05-09 11:24:16 51°14.144 2°55.419 338 9.3 334 10.7
2007-05-09 11:24:22 51°14.157 2°55.407 338 9.5 332 10.8
2007-05-09 11:24:27 51°14.169 2°55.397 337.2 9.7 332 10.8
2007-05-09 11:24:32 51°14.181 2°55.386 336.4 9.8 331 10.9
2007-05-09 11:24:36 51°14.191 2°55.378 335.7 9.9 330 10.9
2007-05-09 11:24:41 51°14.202 2°55.366 334.9 10 327 10.9
2007-05-09 11:24:47 51°14.216 2°55.35 332.9 10.1 324 10.9
2007-05-09 11:24:52 51°14.227 2°55.336 330.2 10.1 322 10.9
2007-05-09 11:24:57 51°14.238 2°55.321 327.1 10.1 318 11
2007-05-09 11:25:01 51°14.246 2°55.309 324.1 10.2 317 10.9
2007-05-09 11:25:06 51°14.256 2°55.293 322.1 10.2 315 10.9
2007-05-09 11:25:12 51°14.268 2°55.273 320 10.3 314 10.9
2007-05-09 11:25:17 51°14.278 2°55.257 318.6 10.5 313 10.9
2007-05-09 11:25:21 51°14.286 2°55.242 317.8 10.8 312 10.8
2007-05-09 11:25:26 51°14.295 2°55.224 316.4 10.9 310 10.9
2007-05-09 11:25:32 51°14.307 2°55.202 314.9 11 310 10.7
2007-05-09 11:25:37 51°14.316 2°55.182 314 11.2 308 10.8
2007-05-09 11:25:42 51°14.326 2°55.162 313.3 11.3 308 10.6
2007-05-09 11:25:46 51°14.334 2°55.146 312.3 11.4 307 10.7
2007-05-09 11:25:52 51°14.345 2°55.122 311.4 11.4 306 10.4
2007-05-09 11:25:57 51°14.354 2°55.101 310.6 11.5 305 10.6
2007-05-09 11:26:01 51°14.361 2°55.084 309.8 11.6 305 10.6
2007-05-09 11:26:06 51°14.37 2°55.063 309 11.7 304 10.3
2007-05-09 11:26:12 51°14.381 2°55.037 308.2 11.8 303 10.3
2007-05-09 11:26:16 51°14.388 2°55.019 307.5 11.9 302 10.4
2007-05-09 11:26:21 51°14.397 2°54.996 306.9 12 301 10.3
2007-05-09 11:26:27 51°14.407 2°54.969 306.3 12.1 301 10.1
2007-05-09 11:26:32 51°14.416 2°54.945 306 12.2 300 10.4
2007-05-09 11:26:36 51°14.422 2°54.926 305.8 12.4 299 10.5
2007-05-09 11:26:41 51°14.431 2°54.902 305.7 12.6 298 10.4
2007-05-09 11:26:47 51°14.441 2°54.872 305.2 12.8 298 10.5
2007-05-09 11:26:52 51°14.449 2°54.847 305 13 298 10.5
2007-05-09 11:26:56 51°14.456 2°54.827 305.4 13.1 300 10.4
2007-05-09 11:27:01 51°14.465 2°54.801 306.2 13.2 299 10.6
2007-05-09 11:27:06 51°14.475 2°54.776 306.8 13.3 300 10.2
2007-05-09 11:27:12 51°14.486 2°54.745 307.5 13.4 300 10.2
2007-05-09 11:27:17 51°14.495 2°54.72 308 13.4 301 10.1
2007-05-09 11:27:21 51°14.503 2°54.7 308.5 13.4 301 10.1
2007-05-09 11:27:26 51°14.513 2°54.675 308.8 13.4 301 10.2
2007-05-09 11:27:32 51°14.524 2°54.644 309.1 13.4 301 10
2007-05-09 11:27:37 51°14.534 2°54.619 309.1 13.4 301 10.1
2007-05-09 11:27:41 51°14.541 2°54.598 308.7 13.4 301 9.8
2007-05-09 11:27:46 51°14.551 2°54.573 308.4 13.4 300 9.5
2007-05-09 11:27:51 51°14.56 2°54.547 308.1 13.4 300 9.8
2007-05-09 11:27:57 51°14.571 2°54.516 307.9 13.4 300 9.9
2007-05-09 11:28:01 51°14.579 2°54.495 307.7 13.5 299 9.7
2007-05-09 11:28:06 51°14.588 2°54.469 307.3 13.5 298 9.6
2007-05-09 11:28:12 51°14.597 2°54.437 306.5 13.6 295 9.7
2007-05-09 11:28:16 51°14.603 2°54.415 304 13.6 295 9.4
2007-05-09 11:28:21 51°14.611 2°54.387 302.5 13.6 292 9.6
2007-05-09 11:28:26 51°14.618 2°54.359 301 13.6 292 9.4
2007-05-09 11:28:32 51°14.626 2°54.326 299.8 13.6 291 9.5
2007-05-09 11:28:36 51°14.632 2°54.303 299.2 13.7 291 9.7
2007-05-09 11:28:41 51°14.638 2°54.275 298.9 13.8 290 9.7
2007-05-09 11:28:47 51°14.646 2°54.241 298.2 13.7 290 9.8
2007-05-09 11:28:52 51°14.653 2°54.212 297.9 13.8 290 9.9
2007-05-09 11:28:56 51°14.658 2°54.189 297.7 13.8 291 10.4
2007-05-09 11:29:01 51°14.665 2°54.161 297.8 13.8 291 10.4
2007-05-09 11:29:06 51°14.672 2°54.132 298.2 13.8 291 10.2
2007-05-09 11:29:12 51°14.679 2°54.098 298.1 13.8 289 10.5
2007-05-09 11:29:17 51°14.685 2°54.069 296.8 13.8 288 10.4
2007-05-09 11:29:21 51°14.69 2°54.046 295.6 13.8 287 10.4
2007-05-09 11:29:26 51°14.695 2°54.017 294.9 13.7 287 10.3
2007-05-09 11:29:32 51°14.701 2°53.982 293.9 13.7 286 10.1
2007-05-09 11:29:37 51°14.706 2°53.952 293.6 13.7 283 10.9
2007-05-09 11:29:41 51°14.709 2°53.928 291.2 13.7 280 10.5
2007-05-09 11:29:46 51°14.712 2°53.898 288.6 13.7 279 10.5
2007-05-09 11:29:51 51°14.714 2°53.868 285.9 13.7 277 10.4
2007-05-09 11:29:56 51°14.716 2°53.838 283.8 13.7 276 10.1
2007-05-09 11:30:01 51°14.717 2°53.808 282.3 13.6 274 10.4
2007-05-09 11:30:06 51°14.719 2°53.778 281 13.7 273 10
2007-05-09 11:30:12 51°14.72 2°53.742 280.1 13.7 273 9.9
2007-05-09 11:30:17 51°14.72 2°53.711 279.4 13.8 272 10.1
2007-05-09 11:30:21 51°14.721 2°53.687 278.8 13.8 272 10
2007-05-09 11:30:26 51°14.721 2°53.657 278.7 13.8 272 9.8
2007-05-09 11:30:32 51°14.723 2°53.62 278.7 13.8 273 9.8
2007-05-09 11:30:36 51°14.723 2°53.596 279.1 13.8 273 10.1
2007-05-09 11:30:41 51°14.725 2°53.565 279.5 13.8 273 9.9
2007-05-09 11:30:47 51°14.726 2°53.529 280.1 13.8 274 10
2007-05-09 11:30:52 51°14.728 2°53.498 280.5 13.9 274 9.9
2007-05-09 11:30:56 51°14.728 2°53.474 280.7 13.9 273 10
2007-05-09 11:31:01 51°14.73 2°53.443 280.4 13.9 273 10
2007-05-09 11:31:06 51°14.731 2°53.412 280.1 13.8 273 9.8
2007-05-09 11:31:12 51°14.732 2°53.376 279.9 13.8 273 9.6
2007-05-09 11:31:16 51°14.733 2°53.352 279.6 13.7 273 9.2
2007-05-09 11:31:21 51°14.734 2°53.322 279.9 13.7 274 9.2
2007-05-09 11:31:27 51°14.736 2°53.285 280.4 13.7 274 8.8
2007-05-09 11:31:32 51°14.737 2°53.255 280.9 13.7 275 8.8
2007-05-09 11:31:37 51°14.739 2°53.225 281.6 13.6 275 8.7
2007-05-09 11:31:41 51°14.74 2°53.201 282 13.7 276 8.8
2007-05-09 11:31:46 51°14.742 2°53.171 282.5 13.7 275 8.7
2007-05-09 11:31:52 51°14.744 2°53.135 282.6 13.7 274 8.5
2007-05-09 11:31:56 51°14.745 2°53.111 282.2 13.7 275 8.5
2007-05-09 11:32:01 51°14.746 2°53.081 282 13.7 274 8.6
2007-05-09 11:32:06 51°14.748 2°53.051 281.7 13.7 273 8.6
2007-05-09 11:32:12 51°14.749 2°53.014 281.1 13.8 273 8.6
2007-05-09 11:32:17 51°14.75 2°52.983 280.3 13.8 273 8.7
2007-05-09 11:32:21 51°14.751 2°52.959 279.7 13.8 273 8.6
2007-05-09 11:32:26 51°14.751 2°52.929 279.4 13.8 272 8.7
2007-05-09 11:32:32 51°14.752 2°52.892 279.3 13.8 273 8.6
2007-05-09 11:32:37 51°14.753 2°52.862 279.3 13.8 273 8.7
2007-05-09 11:32:41 51°14.754 2°52.837 279.4 13.9 273 8.7
2007-05-09 11:32:46 51°14.756 2°52.806 279.8 13.9 275 8.7
2007-05-09 11:32:51 51°14.757 2°52.776 280.6 13.8 274 8.6
2007-05-09 11:32:56 51°14.759 2°52.746 281.2 13.8 275 8.7
2007-05-09 11:33:02 51°14.761 2°52.709 281.9 13.9 276 8.7
2007-05-09 11:33:06 51°14.763 2°52.684 282.4 13.9 276 8.8
2007-05-09 11:33:12 51°14.765 2°52.648 282.7 13.9 275 8.8
2007-05-09 11:33:16 51°14.766 2°52.623 282.9 13.9 275 8.8
2007-05-09 11:33:22 51°14.768 2°52.586 282.8 13.9 274 8.9
2007-05-09 11:33:26 51°14.769 2°52.562 282.3 13.9 274 8.9
2007-05-09 11:33:32 51°14.77 2°52.525 281.7 13.9 273 9
2007-05-09 11:33:37 51°14.771 2°52.494 281 13.9 273 8.8
2007-05-09 11:33:41 51°14.772 2°52.469 280.4 14 272 8.9
2007-05-09 11:33:47 51°14.773 2°52.432 279.8 14 272 8.9
2007-05-09 11:33:52 51°14.773 2°52.401 279.2 14.1 271 8.9
2007-05-09 11:33:56 51°14.774 2°52.376 279 14.1 271 9
2007-05-09 11:34:01 51°14.774 2°52.345 278.7 14.1 271 9
2007-05-09 11:34:06 51°14.775 2°52.314 278.6 14.1 272 9.1
2007-05-09 11:34:12 51°14.776 2°52.276 278.9 14.1 273 9.1
2007-05-09 11:34:16 51°14.776 2°52.251 279.7 14.1 273 9
2007-05-09 11:34:21 51°14.778 2°52.22 280.2 14.1 274 9.1
2007-05-09 11:34:26 51°14.779 2°52.189 280.9 14.1 274 9.1
2007-05-09 11:34:32 51°14.781 2°52.152 281.6 14.1 274 9.2
2007-05-09 11:34:37 51°14.782 2°52.12 281.9 14.2 274 9.2
2007-05-09 11:34:41 51°14.783 2°52.095 282 14.2 275 9.3
2007-05-09 11:34:46 51°14.785 2°52.064 282.1 14.2 274 9.4
2007-05-09 11:34:51 51°14.786 2°52.033 282.1 14.2 274 9.4
2007-05-09 11:34:57 51°14.787 2°51.995 281.9 14.3 273 9.4
2007-05-09 11:35:02 51°14.789 2°51.964 281.6 14.2 273 9.4
2007-05-09 11:35:06 51°14.79 2°51.938 281 14.3 273 9.5
2007-05-09 11:35:12 51°14.791 2°51.901 280.7 14.3 273 9.5
2007-05-09 11:35:16 51°14.791 2°51.876 280.3 14.3 272 9.4
2007-05-09 11:35:22 51°14.793 2°51.838 280.1 14.3 273 9.6
2007-05-09 11:35:26 51°14.793 2°51.812 280.3 14.3 273 9.6
2007-05-09 11:35:32 51°14.795 2°51.775 280.4 14.3 273 9.6
2007-05-09 11:35:36 51°14.796 2°51.75 280.6 14.2 274 9.6
2007-05-09 11:35:42 51°14.798 2°51.712 280.9 14.3 274 9.7
2007-05-09 11:35:47 51°14.799 2°51.68 281.3 14.3 275 9.8
2007-05-09 11:35:52 51°14.801 2°51.649 281.8 14.3 274 9.8
2007-05-09 11:35:56 51°14.802 2°51.624 281.9 14.2 275 9.8
2007-05-09 11:36:01 51°14.803 2°51.593 282 14.2 275 9.7
2007-05-09 11:36:07 51°14.805 2°51.555 282 14.2 274 9.9
2007-05-09 11:36:12 51°14.807 2°51.524 281.8 14.3 274 10
2007-05-09 11:36:16 51°14.808 2°51.499 281.6 14.2 274 10
2007-05-09 11:36:21 51°14.809 2°51.467 281.5 14.2 274 10.1
2007-05-09 11:36:26 51°14.811 2°51.436 281.5 14.2 274 10.1
2007-05-09 11:36:32 51°14.812 2°51.398 281.2 14.3 274 10.2
2007-05-09 11:36:37 51°14.814 2°51.367 280.8 14.3 274 10.2
2007-05-09 11:36:41 51°14.815 2°51.342 280.7 14.2 274 10.4
2007-05-09 11:36:46 51°14.816 2°51.31 280.7 14.2 274 10.3
2007-05-09 11:36:52 51°14.817 2°51.273 280.8 14.3 274 10.4
2007-05-09 11:36:57 51°14.819 2°51.241 280.7 14.2 274 10.4
2007-05-09 11:37:01 51°14.82 2°51.216 280.6 14.3 273 10.5
2007-05-09 11:37:06 51°14.821 2°51.185 280.5 14.2 274 10.5
2007-05-09 11:37:11 51°14.822 2°51.153 280.3 14.2 274 10.5
2007-05-09 11:37:17 51°14.824 2°51.116 280.5 14.2 274 10.6
2007-05-09 11:37:22 51°14.825 2°51.084 280.8 14.3 274 10.6
2007-05-09 11:37:26 51°14.826 2°51.059 280.7 14.2 273 10.6
2007-05-09 11:37:32 51°14.827 2°51.021 280.4 14.2 274 10.7
2007-05-09 11:37:36 51°14.829 2°50.996 280.4 14.2 274 10.8
2007-05-09 11:37:42 51°14.83 2°50.958 280.7 14.3 274 10.8
2007-05-09 11:37:46 51°14.832 2°50.933 280.8 14.3 274 10.8
2007-05-09 11:37:52 51°14.834 2°50.896 281 14.2 275 10.9
2007-05-09 11:37:56 51°14.835 2°50.871 281.4 14.2 274 11
2007-05-09 11:38:01 51°14.836 2°50.839 281.5 14.3 275 11
2007-05-09 11:38:07 51°14.838 2°50.801 281.4 14.3 274 11
2007-05-09 11:38:12 51°14.839 2°50.77 281.4 14.3 274 11.1
2007-05-09 11:38:16 51°14.841 2°50.745 281.4 14.3 274 11.1
2007-05-09 11:38:21 51°14.842 2°50.713 281.2 14.3 274 11.1
2007-05-09 11:38:27 51°14.844 2°50.676 281.2 14.3 274 11.2
2007-05-09 11:38:32 51°14.845 2°50.644 281.1 14.3 274 11.2
2007-05-09 11:38:36 51°14.846 2°50.619 281 14.3 274 11.3
2007-05-09 11:38:41 51°14.848 2°50.587 281 14.3 274 11.3
2007-05-09 11:38:46 51°14.849 2°50.556 280.8 14.3 275 11.4
2007-05-09 11:38:52 51°14.851 2°50.518 280.9 14.3 274 11.4
2007-05-09 11:38:57 51°14.853 2°50.487 281.1 14.3 275 11.5
2007-05-09 11:39:01 51°14.854 2°50.462 281.3 14.3 274 11.4
2007-05-09 11:39:06 51°14.855 2°50.43 281.2 14.2 274 11.4
2007-05-09 11:39:11 51°14.857 2°50.399 281.2 14.3 273 11.6
2007-05-09 11:39:17 51°14.858 2°50.361 280.6 14.3 273 11.5
2007-05-09 11:39:21 51°14.858 2°50.336 279.9 14.3 272 11.5
2007-05-09 11:39:26 51°14.859 2°50.304 278.8 14.2 272 11.5
2007-05-09 11:39:32 51°14.859 2°50.267 278.2 14.2 271 11.6
2007-05-09 11:39:36 51°14.859 2°50.242 278 14.1 269 11.5
2007-05-09 11:39:42 51°14.858 2°50.204 277.7 14.1 266 11.6
2007-05-09 11:39:46 51°14.855 2°50.18 274.3 14.2 260 11.6
2007-05-09 11:39:52 51°14.851 2°50.143 267.9 14.2 260 11.6
2007-05-09 11:39:56 51°14.849 2°50.118 264.9 14.2 263 11.6
2007-05-09 11:40:01 51°14.846 2°50.087 266.2 14.2 262 11.6
2007-05-09 11:40:07 51°14.843 2°50.049 267.6 14.2 263 11.7
2007-05-09 11:40:12 51°14.841 2°50.019 268.1 14 262 11.8
2007-05-09 11:40:16 51°14.839 2°49.995 268.2 13.5 263 11.7
2007-05-09 11:40:21 51°14.837 2°49.965 268 13.5 263 11.7
2007-05-09 11:40:27 51°14.834 2°49.93 268 13.4 263 11.7
2007-05-09 11:40:32 51°14.832 2°49.901 268.1 13.2 263 11.8
2007-05-09 11:40:36 51°14.83 2°49.878 268.4 13.1 263 11.7
2007-05-09 11:40:41 51°14.828 2°49.849 268.7 13.1 264 11.8
2007-05-09 11:40:46 51°14.826 2°49.82 269.2 13.1 264 11.9
2007-05-09 11:40:52 51°14.824 2°49.786 269.7 13.1 263 11.8
2007-05-09 11:40:57 51°14.822 2°49.757 269.8 13.2 264 11.8
2007-05-09 11:41:01 51°14.82 2°49.733 269.9 13.4 264 11.8
2007-05-09 11:41:06 51°14.818 2°49.703 270 13.7 264 11.8
2007-05-09 11:41:12 51°14.816 2°49.667 270.1 13.8 264 11.9
2007-05-09 11:41:17 51°14.814 2°49.636 270 13.9 264 11.9
2007-05-09 11:41:21 51°14.812 2°49.611 269.8 14 264 11.9
2007-05-09 11:41:26 51°14.81 2°49.58 269.9 14.1 264 11.8
2007-05-09 11:41:32 51°14.808 2°49.543 269.8 14.2 264 11.8
2007-05-09 11:41:37 51°14.806 2°49.512 270 14.2 264 11.8
2007-05-09 11:41:42 51°14.804 2°49.48 269.7 14.3 264 11.9
2007-05-09 11:41:46 51°14.802 2°49.455 269.7 14.3 264 11.9
2007-05-09 11:41:52 51°14.8 2°49.417 269.3 14.3 264 11.9
2007-05-09 11:41:57 51°14.798 2°49.386 269.7 14.3 265 11.9
2007-05-09 11:42:01 51°14.796 2°49.36 270.4 14.3 265 11.9
2007-05-09 11:42:06 51°14.795 2°49.329 270.6 14.4 265 11.9
2007-05-09 11:42:12 51°14.793 2°49.291 270.8 14.4 265 11.9
2007-05-09 11:42:16 51°14.791 2°49.266 270.8 14.4 265 11.9
2007-05-09 11:42:22 51°14.79 2°49.228 270.7 14.3 266 11.8
2007-05-09 11:42:27 51°14.788 2°49.196 271.2 14.4 265 11.9
2007-05-09 11:42:32 51°14.786 2°49.164 270.9 14.4 265 11.9
2007-05-09 11:42:36 51°14.785 2°49.139 271.2 14.3 265 11.9
2007-05-09 11:42:41 51°14.783 2°49.107 271 14.4 265 11.9
2007-05-09 11:42:47 51°14.781 2°49.07 270.7 14.4 265 12
2007-05-09 11:42:52 51°14.779 2°49.038 270.9 14.4 266 11.9
2007-05-09 11:42:56 51°14.778 2°49.013 271.3 14.4 266 11.9
2007-05-09 11:43:01 51°14.777 2°48.981 271.4 14.4 266 11.9
2007-05-09 11:43:07 51°14.775 2°48.943 271.4 14.4 266 11.9
2007-05-09 11:43:12 51°14.774 2°48.912 271.7 14.4 266 11.9
2007-05-09 11:43:17 51°14.772 2°48.88 271.7 14.4 266 11.9
2007-05-09 11:43:21 51°14.771 2°48.855 271.5 14.4 265 11.8
2007-05-09 11:43:26 51°14.769 2°48.823 271.4 14.4 266 11.8
2007-05-09 11:43:32 51°14.767 2°48.785 271.1 14.4 265 11.8
2007-05-09 11:43:37 51°14.766 2°48.753 271.1 14.4 266 11.8
2007-05-09 11:43:41 51°14.764 2°48.728 271.3 14.4 265 11.8
2007-05-09 11:43:46 51°14.763 2°48.696 271.2 14.4 265 11.8
2007-05-09 11:43:52 51°14.761 2°48.658 271 14.4 265 11.8
2007-05-09 11:43:57 51°14.759 2°48.627 271 14.4 265 11.8
2007-05-09 11:44:01 51°14.758 2°48.601 270.9 14.4 265 11.7
2007-05-09 11:44:06 51°14.756 2°48.569 270.7 14.4 265 11.7
2007-05-09 11:44:12 51°14.754 2°48.531 270.9 14.4 265 11.7
2007-05-09 11:44:17 51°14.753 2°48.5 271.1 14.3 266 11.6
2007-05-09 11:44:21 51°14.751 2°48.474 271.3 14.4 265 11.5
2007-05-09 11:44:26 51°14.75 2°48.443 271.2 14.4 266 11.5
2007-05-09 11:44:32 51°14.748 2°48.404 271.4 14.3 266 11.5
2007-05-09 11:44:36 51°14.747 2°48.379 271.3 14.4 266 11.4
2007-05-09 11:44:42 51°14.745 2°48.341 271.4 14.4 266 11.5
2007-05-09 11:44:47 51°14.744 2°48.31 271.5 14.3 266 11.3
2007-05-09 11:44:52 51°14.742 2°48.278 271.1 14.4 265 11.2
2007-05-09 11:44:56 51°14.74 2°48.253 271 14.3 266 11.3
2007-05-09 11:45:01 51°14.739 2°48.221 271.3 14.3 265 11.2
2007-05-09 11:45:06 51°14.737 2°48.189 271 14.3 265 11.1
2007-05-09 11:45:12 51°14.735 2°48.152 270.7 14.3 265 11.1
2007-05-09 11:45:17 51°14.734 2°48.12 270.8 14.3 266 11
2007-05-09 11:45:21 51°14.733 2°48.095 271.3 14.3 266 11
2007-05-09 11:45:26 51°14.731 2°48.063 271.5 14.2 266 11
2007-05-09 11:45:32 51°14.73 2°48.026 271.9 14.2 266 11
2007-05-09 11:45:37 51°14.728 2°47.994 272.1 14.3 266 11
2007-05-09 11:45:41 51°14.727 2°47.969 272.1 14.3 267 11
2007-05-09 11:45:46 51°14.726 2°47.938 271.8 14.2 266 10.9
2007-05-09 11:45:51 51°14.725 2°47.906 271.9 14.2 266 11
2007-05-09 11:45:57 51°14.723 2°47.869 271.6 14.3 265 11
2007-05-09 11:46:01 51°14.722 2°47.843 271.2 14.3 266 11
2007-05-09 11:46:06 51°14.72 2°47.812 271 14.3 265 11.1
2007-05-09 11:46:12 51°14.718 2°47.774 270.8 14.3 266 11.2
2007-05-09 11:46:17 51°14.717 2°47.743 271.3 14.3 266 11.2
2007-05-09 11:46:21 51°14.716 2°47.718 271.5 14.3 266 11.2
2007-05-09 11:46:26 51°14.714 2°47.686 271.7 14.3 266 11.3
2007-05-09 11:46:32 51°14.713 2°47.648 271.5 14.3 266 11.3
2007-05-09 11:46:37 51°14.711 2°47.617 271.6 14.3 265 11.4
2007-05-09 11:46:42 51°14.71 2°47.585 271.1 14.3 266 11.5
2007-05-09 11:46:47 51°14.708 2°47.554 271.2 14.3 265 11.6
2007-05-09 11:46:52 51°14.706 2°47.522 270.7 14.3 265 11.6
2007-05-09 11:46:56 51°14.705 2°47.497 270.9 14.2 265 11.7
2007-05-09 11:47:02 51°14.704 2°47.459 271 14.3 266 11.8
2007-05-09 11:47:06 51°14.703 2°47.434 271 14.3 266 11.8
2007-05-09 11:47:12 51°14.701 2°47.396 271.1 14.3 266 12
2007-05-09 11:47:16 51°14.7 2°47.371 271.2 14.3 266 12.1
2007-05-09 11:47:21 51°14.698 2°47.339 271.5 14.3 266 12
2007-05-09 11:47:27 51°14.696 2°47.301 271.4 14.2 266 12.1
2007-05-09 11:47:32 51°14.695 2°47.27 271.5 14.3 265 12.2
2007-05-09 11:47:37 51°14.694 2°47.238 271.4 14.3 266 12.2
2007-05-09 11:47:41 51°14.693 2°47.213 271.5 14.3 266 12.3
2007-05-09 11:47:46 51°14.691 2°47.181 271.4 14.3 265 12.3
2007-05-09 11:47:52 51°14.689 2°47.144 271.2 14.3 266 12.5
2007-05-09 11:47:56 51°14.688 2°47.118 271.1 14.3 264 12.4
2007-05-09 11:48:01 51°14.686 2°47.087 270.6 14.3 266 12.4
2007-05-09 11:48:06 51°14.685 2°47.055 271 14.3 265 12.3
2007-05-09 11:48:12 51°14.683 2°47.018 270.9 14.3 266 12.3
2007-05-09 11:48:17 51°14.681 2°46.986 270.7 14.3 265 12.4
2007-05-09 11:48:21 51°14.68 2°46.961 270.7 14.2 265 12.4
2007-05-09 11:48:26 51°14.678 2°46.93 270.8 14.3 265 12.5
2007-05-09 11:48:32 51°14.677 2°46.892 270.8 14.2 267 12.5
2007-05-09 11:48:37 51°14.675 2°46.86 271.3 14.3 265 12.4
2007-05-09 11:48:41 51°14.674 2°46.835 271.3 14.3 266 12.4
2007-05-09 11:48:46 51°14.672 2°46.804 271.4 14.3 265 12.3
2007-05-09 11:48:52 51°14.67 2°46.766 271.2 14.3 266 12.3
2007-05-09 11:48:56 51°14.669 2°46.741 270.9 14.2 265 12.2
2007-05-09 11:49:02 51°14.668 2°46.703 271 14.2 266 12.3
2007-05-09 11:49:06 51°14.666 2°46.678 271.4 14.3 266 12
2007-05-09 11:49:12 51°14.665 2°46.64 271.1 14.3 267 11.9
2007-05-09 11:49:16 51°14.664 2°46.615 271.7 14.2 266 11.9
2007-05-09 11:49:22 51°14.662 2°46.578 271.7 14.2 267 11.6
2007-05-09 11:49:26 51°14.661 2°46.552 272.1 14.2 266 11.5
2007-05-09 11:49:32 51°14.66 2°46.515 272.1 14.2 267 11.6
2007-05-09 11:49:37 51°14.658 2°46.484 272 14.2 265 11.1
2007-05-09 11:49:41 51°14.657 2°46.458 271.4 14.2 266 10.8
2007-05-09 11:49:47 51°14.655 2°46.421 271.4 14.2 266 10.9
2007-05-09 11:49:52 51°14.654 2°46.39 271.3 14.2 265 10.7
2007-05-09 11:49:56 51°14.653 2°46.365 271.1 14.2 266 10.3
2007-05-09 11:50:01 51°14.651 2°46.334 271 14.1 265 10.5
2007-05-09 11:50:06 51°14.65 2°46.303 270.9 14 266 10.1
2007-05-09 11:50:12 51°14.647 2°46.266 271 14 265 9.7
2007-05-09 11:50:17 51°14.646 2°46.235 270.8 13.9 266 9.5
2007-05-09 11:50:21 51°14.645 2°46.211 270.8 13.9 265 9.7
2007-05-09 11:50:26 51°14.643 2°46.18 270.4 13.8 265 9.1
2007-05-09 11:50:32 51°14.641 2°46.144 270.1 13.8 264 8.9
2007-05-09 11:50:37 51°14.639 2°46.114 269.8 13.8 264 9.1
2007-05-09 11:50:41 51°14.638 2°46.089 270 13.7 265 8.7
2007-05-09 11:50:46 51°14.636 2°46.059 270.3 13.7 265 8.5
2007-05-09 11:50:51 51°14.635 2°46.029 270.4 13.6 266 8.3
2007-05-09 11:50:57 51°14.633 2°45.993 271 13.6 266 8.6
2007-05-09 11:51:02 51°14.632 2°45.963 271.3 13.6 267 8.1
2007-05-09 11:51:06 51°14.631 2°45.939 272.1 13.5 267 8.2
2007-05-09 11:51:12 51°14.63 2°45.904 272.1 13.5 267 8.3
2007-05-09 11:51:16 51°14.63 2°45.88 273 13.5 268 8
2007-05-09 11:51:22 51°14.629 2°45.844 273 13.6 267 7.8
2007-05-09 11:51:26 51°14.628 2°45.82 272.6 13.5 268 7.8
2007-05-09 11:51:32 51°14.627 2°45.784 272.6 13.5 267 8
2007-05-09 11:51:36 51°14.626 2°45.76 272.8 13.6 267 7.7
2007-05-09 11:51:42 51°14.625 2°45.724 272.8 13.6 266 7.9
2007-05-09 11:51:47 51°14.623 2°45.694 272.1 13.6 266 7.7
2007-05-09 11:51:52 51°14.622 2°45.664 271.4 13.7 267 8.1
2007-05-09 11:51:56 51°14.621 2°45.64 271.7 13.7 265 8.2
2007-05-09 11:52:01 51°14.619 2°45.61 270.8 13.7 265 8.2
2007-05-09 11:52:07 51°14.617 2°45.573 270.2 13.8 264 8.3
2007-05-09 11:52:12 51°14.615 2°45.543 269.8 13.9 265 8.3
2007-05-09 11:52:16 51°14.614 2°45.518 269.6 13.9 264 8.4
2007-05-09 11:52:21 51°14.612 2°45.488 269.5 14 264 8.8
2007-05-09 11:52:26 51°14.61 2°45.457 269.5 14 264 8.7
2007-05-09 11:52:32 51°14.607 2°45.42 269.4 14 263 9
2007-05-09 11:52:37 51°14.604 2°45.389 268.9 14.1 262 9.1
2007-05-09 11:52:41 51°14.601 2°45.364 267.6 14.1 260 9.4
2007-05-09 11:52:46 51°14.598 2°45.333 266 14.2 260 9.5
2007-05-09 11:52:51 51°14.594 2°45.303 265.2 14.2 258 9.6
2007-05-09 11:52:57 51°14.589 2°45.266 263.7 14.2 259 9.6
2007-05-09 11:53:01 51°14.586 2°45.241 263.4 14.2 257 9.9
2007-05-09 11:53:06 51°14.582 2°45.211 262.7 14.2 258 10.1
2007-05-09 11:53:12 51°14.576 2°45.174 262.7 14.2 257 10.2
2007-05-09 11:53:17 51°14.573 2°45.143 262.6 14.2 259 10.2
2007-05-09 11:53:22 51°14.568 2°45.113 262.7 14.1 257 10.4
2007-05-09 11:53:26 51°14.565 2°45.089 262.9 14.1 258 10.5
2007-05-09 11:53:32 51°14.56 2°45.052 262.6 14.2 257 10.6
2007-05-09 11:53:36 51°14.557 2°45.027 262.7 14.1 258 10.7
2007-05-09 11:53:42 51°14.552 2°44.991 263 14.1 258 10.8
2007-05-09 11:53:46 51°14.549 2°44.966 263 14.2 258 11
2007-05-09 11:53:52 51°14.544 2°44.93 263 14.2 258 11
2007-05-09 11:53:56 51°14.541 2°44.905 263.1 14.1 258 11.2
2007-05-09 11:54:01 51°14.537 2°44.875 262.9 14.1 257 11.2
2007-05-09 11:54:07 51°14.532 2°44.838 262.7 14.1 258 11.4
2007-05-09 11:54:12 51°14.527 2°44.808 262.8 14.2 257 11.5
2007-05-09 11:54:16 51°14.524 2°44.783 262.7 14.1 257 11.6
2007-05-09 11:54:21 51°14.519 2°44.753 262.2 14.1 255 11.7
2007-05-09 11:54:27 51°14.512 2°44.717 260.8 14.1 254 11.9
2007-05-09 11:54:32 51°14.507 2°44.687 259.4 14.2 253 11.9
2007-05-09 11:54:37 51°14.501 2°44.657 258.6 14.2 253 12.1
2007-05-09 11:54:41 51°14.496 2°44.633 258 14.1 253 12.1
2007-05-09 11:54:46 51°14.491 2°44.603 257.3 14.1 253 12.2
2007-05-09 11:54:52 51°14.484 2°44.568 257.5 14.2 253 12.5
2007-05-09 11:54:57 51°14.478 2°44.538 257.6 14.1 254 12.5
2007-05-09 11:55:01 51°14.474 2°44.514 257.7 14.2 254 12.6
2007-05-09 11:55:06 51°14.468 2°44.484 257.9 14.2 253 12.8
2007-05-09 11:55:11 51°14.463 2°44.454 258 14.2 253 12.8
2007-05-09 11:55:17 51°14.455 2°44.418 258 14.2 252 12.9
2007-05-09 11:55:22 51°14.449 2°44.388 257.6 14.1 252 13
2007-05-09 11:55:26 51°14.444 2°44.365 257 14.2 248 13.1
2007-05-09 11:55:32 51°14.434 2°44.331 254.3 14.1 247 13.1
2007-05-09 11:55:37 51°14.426 2°44.303 251.4 14.1 244 13.1
2007-05-09 11:55:42 51°14.417 2°44.275 248.8 14.1 244 13.1
2007-05-09 11:55:46 51°14.41 2°44.253 247.5 14.1 241 13.2
2007-05-09 11:55:52 51°14.399 2°44.22 246.4 14.1 242 13.3
2007-05-09 11:55:56 51°14.391 2°44.198 245.3 14 240 13.3
2007-05-09 11:56:02 51°14.379 2°44.166 244.5 14.1 240 13.3
2007-05-09 11:56:07 51°14.37 2°44.138 243.9 14.1 241 13.3
2007-05-09 11:56:12 51°14.36 2°44.112 243.8 14.1 239 13.4
2007-05-09 11:56:16 51°14.352 2°44.09 243.1 14.1 241 13.5
2007-05-09 11:56:22 51°14.34 2°44.057 243.8 14.1 240 13.5
2007-05-09 11:56:27 51°14.331 2°44.03 243.6 14.2 241 13.5
2007-05-09 11:56:32 51°14.32 2°44.003 243.5 14.2 238 13.5
2007-05-09 11:56:36 51°14.312 2°43.982 242.7 14.2 240 13.6
2007-05-09 11:56:41 51°14.302 2°43.955 242.3 14.2 237 13.6
2007-05-09 11:56:47 51°14.29 2°43.923 241.6 14.2 240 13.6
2007-05-09 11:56:52 51°14.279 2°43.897 241.3 14.2 236 13.6
2007-05-09 11:56:57 51°14.269 2°43.87 241.1 14.1 239 13.7
2007-05-09 11:57:01 51°14.26 2°43.849 240.9 14.2 236 13.7
2007-05-09 11:57:06 51°14.249 2°43.823 240.1 14.2 237 13.8
2007-05-09 11:57:11 51°14.238 2°43.797 239.6 14 234 13.7
2007-05-09 11:57:17 51°14.224 2°43.767 238.7 14.1 234 13.8
2007-05-09 11:57:21 51°14.215 2°43.747 237.4 14.2 234 13.8
2007-05-09 11:57:26 51°14.204 2°43.722 237.2 14.1 233 13.7
2007-05-09 11:57:32 51°14.19 2°43.692 236.4 14.2 234 13.7
2007-05-09 11:57:37 51°14.178 2°43.666 236.5 14.2 234 13.8
2007-05-09 11:57:42 51°14.166 2°43.641 237.1 14.2 234 13.7
2007-05-09 11:57:46 51°14.157 2°43.62 236.9 14.2 234 13.7
2007-05-09 11:57:52 51°14.143 2°43.59 237 14.2 234 13.8
2007-05-09 11:57:56 51°14.134 2°43.57 237.3 14.2 234 13.7
2007-05-09 11:58:01 51°14.122 2°43.545 236.8 14.3 234 13.7
2007-05-09 11:58:06 51°14.111 2°43.519 236.6 14.2 235 13.7
2007-05-09 11:58:12 51°14.097 2°43.488 237.6 14.2 234 13.8
2007-05-09 11:58:16 51°14.088 2°43.468 237.3 14.2 235 13.6
2007-05-09 11:58:22 51°14.074 2°43.437 237.3 14.3 234 13.5
2007-05-09 11:58:27 51°14.063 2°43.412 237.2 14.2 235 13.6
2007-05-09 11:58:32 51°14.051 2°43.386 237.3 14.2 234 13.7
2007-05-09 11:58:36 51°14.042 2°43.365 237.5 14.2 235 13.6
2007-05-09 11:58:41 51°14.031 2°43.34 237.6 14.2 234 13.6
2007-05-09 11:58:47 51°14.017 2°43.309 237.2 14.3 235 13.6
2007-05-09 11:58:52 51°14.005 2°43.284 237.1 14.2 234 13.7
2007-05-09 11:58:57 51°13.994 2°43.258 237.3 14.2 235 13.6
2007-05-09 11:59:01 51°13.984 2°43.238 237.5 14.3 234 13.7
2007-05-09 11:59:06 51°13.973 2°43.212 237.3 14.3 236 13.6
2007-05-09 11:59:12 51°13.959 2°43.182 238 14.3 234 13.6
2007-05-09 11:59:17 51°13.948 2°43.155 237.4 14.3 236 13.4
2007-05-09 11:59:21 51°13.939 2°43.135 238 14.2 234 13.5
2007-05-09 11:59:26 51°13.927 2°43.109 237.8 14.3 235 13.6
2007-05-09 11:59:32 51°13.914 2°43.078 237.7 14.3 235 13.5
2007-05-09 11:59:37 51°13.902 2°43.053 238.1 14.2 234 13.5
2007-05-09 11:59:42 51°13.891 2°43.027 237.5 14.2 234 13.5
2007-05-09 11:59:46 51°13.881 2°43.007 237.5 14.3 235 13.4
2007-05-09 11:59:52 51°13.868 2°42.976 237.5 14.3 234 13.5
2007-05-09 11:59:57 51°13.856 2°42.95 237.5 14.3 235 13.5
2007-05-09 12:00:01 51°13.847 2°42.929 237.3 14.3 235 13.5
2007-05-09 12:00:06 51°13.836 2°42.904 237.7 14.3 234 13.5
2007-05-09 12:00:12 51°13.822 2°42.873 237.8 14.3 235 13.4
2007-05-09 12:00:16 51°13.813 2°42.852 237.5 14.3 235 13.5
2007-05-09 12:00:22 51°13.799 2°42.821 238 14.3 234 13.5
2007-05-09 12:00:27 51°13.788 2°42.795 237.7 14.3 235 13.4
2007-05-09 12:00:32 51°13.776 2°42.77 238 14.3 235 13.4
2007-05-09 12:00:36 51°13.767 2°42.749 238 14.3 234 13.4
2007-05-09 12:00:42 51°13.753 2°42.718 237.7 14.3 235 13.4
2007-05-09 12:00:47 51°13.741 2°42.692 237.8 14.3 234 13.4
2007-05-09 12:00:52 51°13.73 2°42.666 237.5 14.3 235 13.3
2007-05-09 12:00:56 51°13.721 2°42.646 238 14.3 234 13.4
2007-05-09 12:01:01 51°13.71 2°42.62 237.9 14.4 236 13.4
2007-05-09 12:01:07 51°13.696 2°42.589 237.9 14.3 235 13.3
2007-05-09 12:01:12 51°13.685 2°42.563 238 14.3 235 13.2
2007-05-09 12:01:17 51°13.673 2°42.537 238 14.3 235 13.2
2007-05-09 12:01:21 51°13.664 2°42.516 238.1 14.3 235 13.3
2007-05-09 12:01:26 51°13.653 2°42.491 237.8 14.3 235 13.3
2007-05-09 12:01:32 51°13.639 2°42.46 238 14.2 235 13.2
2007-05-09 12:01:37 51°13.628 2°42.434 237.9 14.3 234 13.2
2007-05-09 12:01:42 51°13.616 2°42.408 237.3 14.2 235 13.2
2007-05-09 12:01:46 51°13.607 2°42.388 237.9 14.3 234 13.1
2007-05-09 12:01:52 51°13.593 2°42.357 237.3 14.3 235 13.2
2007-05-09 12:01:57 51°13.582 2°42.331 237.5 14.2 235 13.1
2007-05-09 12:02:01 51°13.573 2°42.311 237.9 14.2 235 13.1
2007-05-09 12:02:06 51°13.562 2°42.285 237.6 14.2 234 13.1
2007-05-09 12:02:12 51°13.548 2°42.254 237.3 14.3 235 13
2007-05-09 12:02:17 51°13.537 2°42.228 237.5 14.2 236 13
2007-05-09 12:02:21 51°13.528 2°42.207 238.4 14.2 235 13.1
2007-05-09 12:02:27 51°13.514 2°42.176 238.4 14.3 236 13.1
2007-05-09 12:02:32 51°13.503 2°42.15 238.2 14.3 235 13.1
2007-05-09 12:02:37 51°13.491 2°42.124 238.4 14.3 235 13
2007-05-09 12:02:42 51°13.48 2°42.099 238.1 14.3 235 13.1
2007-05-09 12:02:47 51°13.468 2°42.073 238.2 14.4 235 13
2007-05-09 12:02:52 51°13.457 2°42.047 238.1 14.2 235 13
2007-05-09 12:02:56 51°13.448 2°42.027 238 14.3 234 13.2
2007-05-09 12:03:02 51°13.434 2°41.995 237.3 14.4 235 13
2007-05-09 12:03:06 51°13.425 2°41.974 237.7 14.3 235 13.1
2007-05-09 12:03:12 51°13.411 2°41.943 238.1 14.3 235 13
2007-05-09 12:03:17 51°13.4 2°41.917 238 14.3 235 13
2007-05-09 12:03:21 51°13.391 2°41.897 238.3 14.3 235 13
2007-05-09 12:03:27 51°13.377 2°41.865 238.1 14.3 236 13
2007-05-09 12:03:32 51°13.366 2°41.839 238.2 14.3 235 13.1
2007-05-09 12:03:37 51°13.355 2°41.813 238.4 14.4 236 13.2
2007-05-09 12:03:41 51°13.346 2°41.792 238.4 14.3 235 13.2
2007-05-09 12:03:47 51°13.332 2°41.761 238.4 14.3 235 13
2007-05-09 12:03:52 51°13.32 2°41.735 238.1 14.4 236 13.1
2007-05-09 12:03:57 51°13.309 2°41.709 238.1 14.3 235 13
2007-05-09 12:04:01 51°13.3 2°41.688 238.4 14.3 235 13.1
2007-05-09 12:04:06 51°13.288 2°41.663 238.1 14.4 235 13
2007-05-09 12:04:12 51°13.275 2°41.631 237.7 14.3 235 13
2007-05-09 12:04:17 51°13.263 2°41.606 238.4 14.3 234 13
2007-05-09 12:04:21 51°13.254 2°41.585 238 14.3 235 12.9
2007-05-09 12:04:26 51°13.243 2°41.559 238 14.3 235 12.8
2007-05-09 12:04:32 51°13.229 2°41.528 238 14.3 235 12.8
2007-05-09 12:04:37 51°13.218 2°41.502 238 14.2 236 12.8
2007-05-09 12:04:42 51°13.206 2°41.477 238 14.3 234 13
2007-05-09 12:04:47 51°13.195 2°41.451 237.5 14.3 236 12.8
2007-05-09 12:04:52 51°13.184 2°41.425 237.9 14.3 235 12.8
2007-05-09 12:04:56 51°13.175 2°41.404 238.4 14.3 235 12.8
2007-05-09 12:05:02 51°13.161 2°41.373 238.5 14.2 235 12.8
2007-05-09 12:05:06 51°13.152 2°41.352 238.2 14.3 235 12.8
2007-05-09 12:05:12 51°13.139 2°41.321 237.9 14.2 235 12.7
2007-05-09 12:05:17 51°13.127 2°41.296 238.2 14.3 234 12.7
2007-05-09 12:05:21 51°13.118 2°41.275 237.8 14.2 236 12.7
2007-05-09 12:05:27 51°13.104 2°41.244 238.7 14.2 234 12.7
2007-05-09 12:05:32 51°13.093 2°41.218 238.2 14.3 236 12.7
2007-05-09 12:05:37 51°13.082 2°41.193 238.1 14.2 235 12.6
2007-05-09 12:05:41 51°13.073 2°41.172 238.2 14.2 235 12.8
2007-05-09 12:05:47 51°13.059 2°41.141 238.2 14.2 235 12.8
2007-05-09 12:05:52 51°13.048 2°41.115 238 14.3 235 12.7
2007-05-09 12:05:56 51°13.04 2°41.094 238.5 14.2 236 12.7
2007-05-09 12:06:01 51°13.028 2°41.069 238.7 14.2 235 12.6
2007-05-09 12:06:06 51°13.017 2°41.043 238 14.2 236 12.6
2007-05-09 12:06:12 51°13.003 2°41.012 238.4 14.2 235 12.7
2007-05-09 12:06:17 51°12.992 2°40.986 238.4 14.2 236 12.7
2007-05-09 12:06:21 51°12.983 2°40.966 238.7 14.3 234 12.6
2007-05-09 12:06:26 51°12.972 2°40.94 238 14.2 236 12.7
2007-05-09 12:06:32 51°12.958 2°40.909 238.5 14.2 235 12.7
2007-05-09 12:06:37 51°12.947 2°40.883 238.4 14.2 235 12.6
2007-05-09 12:06:42 51°12.935 2°40.858 238.6 14.3 235 12.6
2007-05-09 12:06:47 51°12.924 2°40.832 238.2 14.2 235 12.6
2007-05-09 12:06:52 51°12.913 2°40.806 238.7 14.1 235 12.6
2007-05-09 12:06:57 51°12.902 2°40.781 238.2 14.2 235 11.5
2007-05-09 12:07:02 51°12.89 2°40.755 237.8 14.2 235 11.9
2007-05-09 12:07:06 51°12.882 2°40.734 238.2 14.1 235 12.2
2007-05-09 12:07:12 51°12.868 2°40.704 238.5 14.1 235 12.1
2007-05-09 12:07:16 51°12.859 2°40.683 238.4 14.2 235 12.1
2007-05-09 12:07:22 51°12.846 2°40.652 238.6 14.2 236 12.1
2007-05-09 12:07:27 51°12.834 2°40.626 238.8 14.2 235 12.3
2007-05-09 12:07:32 51°12.824 2°40.6 238.7 14.1 237 12.4
2007-05-09 12:07:37 51°12.812 2°40.575 239.3 14.2 234 12.3
2007-05-09 12:07:41 51°12.803 2°40.554 238.3 14.2 237 12.2
2007-05-09 12:07:46 51°12.792 2°40.528 239.1 14 234 11.6
2007-05-09 12:07:51 51°12.781 2°40.503 238.7 14.1 236 11.3
2007-05-09 12:07:56 51°12.77 2°40.477 238.3 14.1 235 11.8
2007-05-09 12:08:02 51°12.757 2°40.446 238.5 14.1 236 11.9
2007-05-09 12:08:07 51°12.746 2°40.421 238.8 14.1 235 12.1
2007-05-09 12:08:12 51°12.735 2°40.395 238.7 14.1 235 12
2007-05-09 12:08:17 51°12.723 2°40.37 238.1 14.2 235 11.9
2007-05-09 12:08:21 51°12.715 2°40.349 238.2 14.1 235 11.8
2007-05-09 12:08:26 51°12.704 2°40.324 238.5 14 235 11.8
2007-05-09 12:08:31 51°12.692 2°40.298 238.2 14.1 235 11.7
2007-05-09 12:08:37 51°12.679 2°40.268 238 14.1 235 11.8
2007-05-09 12:08:41 51°12.67 2°40.248 238 14.1 235 11.9
2007-05-09 12:08:46 51°12.658 2°40.222 237.8 14.2 234 11.7
2007-05-09 12:08:51 51°12.647 2°40.197 237.7 14.1 235 11.6
2007-05-09 12:08:57 51°12.634 2°40.167 237.7 14.1 234 11.8
2007-05-09 12:09:01 51°12.625 2°40.146 237.8 14.1 235 11.8
2007-05-09 12:09:06 51°12.614 2°40.12 238 14.1 235 11.8
2007-05-09 12:09:11 51°12.602 2°40.095 238.4 14.2 235 11.9
2007-05-09 12:09:16 51°12.592 2°40.068 238.3 14.1 236 12.1
2007-05-09 12:09:22 51°12.578 2°40.038 239.1 14.1 235 12
2007-05-09 12:09:26 51°12.569 2°40.017 238.8 14.2 236 12
2007-05-09 12:09:31 51°12.558 2°39.991 238.7 14.2 236 12
2007-05-09 12:09:36 51°12.547 2°39.965 238.7 14.2 235 11.8
2007-05-09 12:09:41 51°12.536 2°39.939 238.2 14.1 236 11.8
2007-05-09 12:09:46 51°12.525 2°39.914 238.7 14 235 11.1
2007-05-09 12:09:51 51°12.514 2°39.888 238.2 14.2 235 11
2007-05-09 12:09:56 51°12.503 2°39.863 238.4 14.2 236 11.2
2007-05-09 12:10:01 51°12.491 2°39.837 238.6 14.1 234 11.5
2007-05-09 12:10:06 51°12.48 2°39.812 238.4 14.1 236 11.6
2007-05-09 12:10:11 51°12.469 2°39.786 238.2 14.2 234 11.7
2007-05-09 12:10:16 51°12.458 2°39.76 237.8 14.3 236 11.7
2007-05-09 12:10:21 51°12.447 2°39.734 238.2 14.1 235 11.6
2007-05-09 12:10:26 51°12.435 2°39.708 238.7 14.1 235 11.6
2007-05-09 12:10:31 51°12.424 2°39.683 238.1 14.2 235 11.7
2007-05-09 12:10:37 51°12.411 2°39.652 238.2 14.3 235 11.8
2007-05-09 12:10:41 51°12.402 2°39.631 238.3 14.1 236 11.9
2007-05-09 12:10:46 51°12.391 2°39.606 239.2 14 235 11.9
2007-05-09 12:10:51 51°12.379 2°39.58 238.1 14.3 235 11.9
2007-05-09 12:10:57 51°12.366 2°39.549 237.7 14.1 236 11.7
2007-05-09 12:11:01 51°12.357 2°39.529 238.8 14 234 11.8
2007-05-09 12:11:06 51°12.346 2°39.503 238 14.1 236 11.7
2007-05-09 12:11:11 51°12.334 2°39.477 238.2 14.3 234 11.7
2007-05-09 12:11:16 51°12.323 2°39.451 238 14.2 236 11.7
2007-05-09 12:11:22 51°12.31 2°39.42 238.2 14.1 236 11.8
2007-05-09 12:11:26 51°12.301 2°39.4 238.7 14.1 233 11.7
2007-05-09 12:11:31 51°12.29 2°39.374 238 14.2 237 11.8
2007-05-09 12:11:36 51°12.279 2°39.348 238.7 14.2 234 11.8
2007-05-09 12:11:41 51°12.267 2°39.322 238.7 14.2 236 11.9
2007-05-09 12:11:46 51°12.256 2°39.296 238 14.2 235 11.9
2007-05-09 12:11:51 51°12.245 2°39.271 238.6 14.2 236 11.9
2007-05-09 12:11:56 51°12.234 2°39.245 238.1 14.1 235 11.9
2007-05-09 12:12:01 51°12.222 2°39.219 238.5 14.2 235 11.8
2007-05-09 12:12:06 51°12.211 2°39.193 238 14.2 235 11.9
2007-05-09 12:12:11 51°12.2 2°39.168 238.1 14.1 234 12
2007-05-09 12:12:16 51°12.189 2°39.142 237.9 14.1 236 11.9
2007-05-09 12:12:21 51°12.177 2°39.117 238.2 14.2 234 11.9
2007-05-09 12:12:26 51°12.166 2°39.091 238.2 14.2 236 11.9
2007-05-09 12:12:31 51°12.155 2°39.065 237.9 14.2 235 11.8
2007-05-09 12:12:36 51°12.144 2°39.039 238.1 14.2 236 11.8
2007-05-09 12:12:41 51°12.132 2°39.014 238.4 14.1 235 11.8
2007-05-09 12:12:46 51°12.121 2°38.988 238.5 14.2 235 11.9
2007-05-09 12:12:51 51°12.11 2°38.962 238 14.2 236 11.7
2007-05-09 12:12:57 51°12.096 2°38.932 238.6 14.2 234 12
2007-05-09 12:13:01 51°12.087 2°38.911 238.2 14.2 235 11.8
2007-05-09 12:13:06 51°12.076 2°38.885 238 14.2 235 11.8
2007-05-09 12:13:11 51°12.065 2°38.859 238.1 14.2 235 11.9
2007-05-09 12:13:17 51°12.051 2°38.829 238.1 14.2 234 12
2007-05-09 12:13:21 51°12.042 2°38.808 237.8 14.2 236 11.9
2007-05-09 12:13:26 51°12.031 2°38.782 238.4 14.2 235 11.9
2007-05-09 12:13:31 51°12.019 2°38.757 238 14.3 235 11.9
2007-05-09 12:13:37 51°12.006 2°38.725 237.9 14.2 235 12.1
2007-05-09 12:13:41 51°11.997 2°38.705 238.7 14.2 235 12.1
2007-05-09 12:13:46 51°11.986 2°38.679 238 14.3 236 12
2007-05-09 12:13:51 51°11.974 2°38.653 238.2 14.3 235 12.1
2007-05-09 12:13:56 51°11.963 2°38.627 238.2 14.2 236 11.9
2007-05-09 12:14:01 51°11.952 2°38.601 238.6 14.2 235 12.1
2007-05-09 12:14:06 51°11.941 2°38.576 238.3 14.2 235 12.2
2007-05-09 12:14:11 51°11.929 2°38.55 238.3 14.3 235 12.2
2007-05-09 12:14:16 51°11.918 2°38.524 238 14.2 235 12.2
2007-05-09 12:14:21 51°11.907 2°38.498 238.1 14.2 236 12.1
2007-05-09 12:14:26 51°11.896 2°38.472 238.5 14.3 234 12.3
2007-05-09 12:14:31 51°11.885 2°38.446 238.2 14.3 236 12.3
2007-05-09 12:14:36 51°11.873 2°38.42 238.6 14.3 235 12.4
2007-05-09 12:14:41 51°11.862 2°38.394 238.7 14.2 236 12.4
2007-05-09 12:14:46 51°11.851 2°38.369 238.5 14.3 235 12.4
2007-05-09 12:14:51 51°11.84 2°38.342 238.4 14.2 236 12.5
2007-05-09 12:14:57 51°11.826 2°38.312 238.5 14.2 235 12.3
2007-05-09 12:15:01 51°11.817 2°38.291 238.4 14.3 236 12.5
2007-05-09 12:15:06 51°11.806 2°38.265 238.4 14.2 235 12.5
2007-05-09 12:15:11 51°11.795 2°38.239 238.3 14.2 235 12.5
2007-05-09 12:15:17 51°11.781 2°38.208 238 14.3 236 12.6
2007-05-09 12:15:21 51°11.773 2°38.187 238 14.2 236 12.6
2007-05-09 12:15:26 51°11.761 2°38.162 238.6 14.2 234 12.6
2007-05-09 12:15:31 51°11.75 2°38.136 238 14.3 235 12.8
2007-05-09 12:15:37 51°11.737 2°38.105 238 14.2 236 12.8
2007-05-09 12:15:41 51°11.727 2°38.084 238.4 14.2 235 12.8
2007-05-09 12:15:46 51°11.716 2°38.058 238.4 14.3 235 12.9
2007-05-09 12:15:51 51°11.705 2°38.033 238 14.2 235 12.9
2007-05-09 12:15:56 51°11.694 2°38.007 238.4 14.2 235 13
2007-05-09 12:16:01 51°11.683 2°37.981 238 14.2 236 13.1
2007-05-09 12:16:06 51°11.671 2°37.955 238.6 14.2 234 13.1
2007-05-09 12:16:11 51°11.66 2°37.93 238 14.2 236 13.3
2007-05-09 12:16:16 51°11.649 2°37.904 238 14.1 235 13.2
2007-05-09 12:16:21 51°11.637 2°37.878 238.5 14.1 235 13.1
2007-05-09 12:16:26 51°11.625 2°37.853 238 14.3 232 13.2
2007-05-09 12:16:31 51°11.614 2°37.828 236.6 14.3 234 13.3
2007-05-09 12:16:36 51°11.601 2°37.803 236.3 14.1 231 13.2
2007-05-09 12:16:41 51°11.589 2°37.779 235.2 14.2 232 13.2
2007-05-09 12:16:46 51°11.577 2°37.754 234.5 14.3 231 13.1
2007-05-09 12:16:51 51°11.565 2°37.729 234 14.2 232 13.2
2007-05-09 12:16:56 51°11.553 2°37.705 234.3 14.2 231 13.3
2007-05-09 12:17:01 51°11.54 2°37.68 234.4 14.2 232 13.2
2007-05-09 12:17:06 51°11.528 2°37.656 234.3 14.3 230 13.1
2007-05-09 12:17:11 51°11.516 2°37.632 233.9 14.2 232 13.2
2007-05-09 12:17:17 51°11.501 2°37.603 233.5 14.2 230 13.2
2007-05-09 12:17:21 51°11.49 2°37.584 233 14.3 230 13.2
2007-05-09 12:17:26 51°11.478 2°37.56 232.4 14.1 229 13.1
2007-05-09 12:17:31 51°11.464 2°37.537 231.7 14.1 228 13.3
2007-05-09 12:17:37 51°11.448 2°37.509 230.9 14.2 228 13.2
2007-05-09 12:17:41 51°11.438 2°37.49 230.4 14.2 228 13.1
2007-05-09 12:17:46 51°11.424 2°37.467 230.3 14.2 228 13.1
2007-05-09 12:17:51 51°11.411 2°37.443 230.4 14.1 228 13.3
2007-05-09 12:17:57 51°11.395 2°37.415 230.7 14.2 228 13.2
2007-05-09 12:18:01 51°11.385 2°37.396 231 14.2 229 13
2007-05-09 12:18:06 51°11.372 2°37.373 231.5 14.1 228 12.9
2007-05-09 12:18:11 51°11.359 2°37.349 231.3 14.2 229 12.9
2007-05-09 12:18:16 51°11.345 2°37.326 230.8 14.2 229 13.1
2007-05-09 12:18:21 51°11.332 2°37.303 230.9 14.2 228 12.9
2007-05-09 12:18:26 51°11.319 2°37.279 230.9 14.1 228 12.9
2007-05-09 12:18:31 51°11.305 2°37.258 230.6 14.1 225 12.8
2007-05-09 12:18:36 51°11.291 2°37.236 227.9 14.1 224 12.9
2007-05-09 12:18:42 51°11.273 2°37.211 226.3 14.1 222 12.6
2007-05-09 12:18:46 51°11.261 2°37.194 225.1 14.1 220 12.8
2007-05-09 12:18:51 51°11.246 2°37.175 223.2 14.2 219 12.4
2007-05-09 12:18:56 51°11.231 2°37.156 221.3 14 217 12.8
2007-05-09 12:19:01 51°11.214 2°37.138 219.5 14.2 216 12.7
2007-05-09 12:19:06 51°11.198 2°37.119 217.8 14.3 217 12.7
2007-05-09 12:19:11 51°11.182 2°37.1 217.8 14.2 215 12.4
2007-05-09 12:19:17 51°11.163 2°37.079 217.1 14.2 215 12.6
2007-05-09 12:19:21 51°11.15 2°37.065 216.3 14.2 214 12.4
2007-05-09 12:19:26 51°11.134 2°37.047 216.1 14.1 214 12.4
2007-05-09 12:19:31 51°11.118 2°37.03 215.3 14.2 214 12.4
2007-05-09 12:19:37 51°11.098 2°37.009 215.5 14.2 214 12.2
2007-05-09 12:19:41 51°11.085 2°36.994 215.5 14.2 215 12.3
2007-05-09 12:19:46 51°11.069 2°36.977 216.2 14.2 214 12.2
2007-05-09 12:19:51 51°11.053 2°36.959 215.9 14.2 214 12
2007-05-09 12:19:57 51°11.034 2°36.938 215.8 14.3 214 11.9
2007-05-09 12:20:01 51°11.021 2°36.924 215.5 14.2 214 11.7
2007-05-09 12:20:06 51°11.005 2°36.906 215.4 14.1 215 11.6
2007-05-09 12:20:11 51°10.989 2°36.889 215.6 14.1 214 11.7
2007-05-09 12:20:17 51°10.969 2°36.868 215.8 14.2 214 11.5
2007-05-09 12:20:21 51°10.956 2°36.854 215.5 14.3 213 11.4
2007-05-09 12:20:26 51°10.939 2°36.837 214.8 14.3 214 11.5
2007-05-09 12:20:31 51°10.923 2°36.82 214.8 14.1 212 11.2
2007-05-09 12:20:36 51°10.907 2°36.804 214.5 14.1 212 11.3
2007-05-09 12:20:41 51°10.89 2°36.787 213.5 14.2 212 11.1
2007-05-09 12:20:46 51°10.873 2°36.77 213.7 14.2 213 11.1
2007-05-09 12:20:51 51°10.857 2°36.753 213.8 14.1 212 10.8
2007-05-09 12:20:56 51°10.841 2°36.736 214.1 14.1 212 10.8
2007-05-09 12:21:01 51°10.824 2°36.72 213.7 14.2 211 10.9
2007-05-09 12:21:06 51°10.807 2°36.703 213.1 14.1 212 10.6
2007-05-09 12:21:11 51°10.79 2°36.689 213.3 14 209 10.6
2007-05-09 12:21:16 51°10.773 2°36.673 211.3 14.1 209 10.4
2007-05-09 12:21:21 51°10.756 2°36.659 210.5 14 207 10.1
2007-05-09 12:21:26 51°10.739 2°36.645 209.4 13.8 206 10.3
2007-05-09 12:21:31 51°10.722 2°36.633 207.8 13.9 205 10.1
2007-05-09 12:21:37 51°10.701 2°36.617 206.6 14.1 205 10
2007-05-09 12:21:41 51°10.686 2°36.606 206.1 14 205 9.9
2007-05-09 12:21:46 51°10.669 2°36.595 206.4 13.9 202 9.9
2007-05-09 12:21:51 51°10.65 2°36.585 203.9 13.8 199 9.7
2007-05-09 12:21:56 51°10.632 2°36.575 200.5 13.7 198 9.7
2007-05-09 12:22:01 51°10.614 2°36.567 198.7 13.8 196 9.4
2007-05-09 12:22:06 51°10.596 2°36.559 197 13.8 195 9.3
2007-05-09 12:22:11 51°10.577 2°36.552 196 13.8 194 9.2
2007-05-09 12:22:17 51°10.555 2°36.546 195 13.6 189 9.2
2007-05-09 12:22:21 51°10.54 2°36.542 192.2 13.7 189 9.1
2007-05-09 12:22:26 51°10.521 2°36.538 189.1 13.7 186 9
2007-05-09 12:22:31 51°10.502 2°36.536 187.5 13.7 185 8.8
2007-05-09 12:22:37 51°10.479 2°36.532 185.3 13.7 185 8.6
2007-05-09 12:22:41 51°10.463 2°36.531 184.5 13.8 183 8.8
2007-05-09 12:22:46 51°10.444 2°36.528 183.8 13.7 184 8.7
2007-05-09 12:22:51 51°10.425 2°36.528 183.6 13.7 182 8.8
2007-05-09 12:22:56 51°10.407 2°36.525 182.9 13.7 184 9
2007-05-09 12:23:02 51°10.384 2°36.524 183.1 13.9 183 9.6
2007-05-09 12:23:06 51°10.368 2°36.522 182.9 14.1 183 10
2007-05-09 12:23:11 51°10.349 2°36.521 182.7 14.3 182 11.4
2007-05-09 12:23:16 51°10.329 2°36.519 182.5 14.3 183 12
2007-05-09 12:23:21 51°10.309 2°36.518 182.4 14.2 184 12.5
2007-05-09 12:23:26 51°10.289 2°36.515 182.8 14.1 184 13.2
2007-05-09 12:23:31 51°10.27 2°36.513 183.3 14.1 184 14
2007-05-09 12:23:37 51°10.247 2°36.511 183.7 14.1 184 14.7
2007-05-09 12:23:41 51°10.231 2°36.51 183.8 14.2 182 15.3
2007-05-09 12:23:46 51°10.212 2°36.509 182.8 14 182 15.7
2007-05-09 12:23:51 51°10.192 2°36.509 181.5 13.8 179 16.3
2007-05-09 12:23:56 51°10.173 2°36.508 179.7 13.9 181 16.7
2007-05-09 12:24:01 51°10.154 2°36.509 179.2 13.9 179 17.1
2007-05-09 12:24:06 51°10.135 2°36.509 178.7 13.7 180 17.3
2007-05-09 12:24:11 51°10.116 2°36.509 177.9 13.6 180 17.5
2007-05-09 12:24:17 51°10.093 2°36.509 178 13.8 180 17.7
2007-05-09 12:24:21 51°10.078 2°36.509 178.3 13.8 180 17.6
2007-05-09 12:24:26 51°10.059 2°36.508 178.1 13.6 180 17.6
2007-05-09 12:24:31 51°10.04 2°36.509 177.3 13.6 180 17.6
2007-05-09 12:24:37 51°10.017 2°36.507 177.6 13.8 181 17.4
2007-05-09 12:24:41 51°10.002 2°36.507 178.3 13.7 181 17.3
2007-05-09 12:24:46 51°9.983 2°36.507 178.2 13.6 181 17.5
2007-05-09 12:24:51 51°9.964 2°36.507 177.9 13.6 179 17.5
2007-05-09 12:24:56 51°9.945 2°36.506 177.5 13.7 181 17.3
2007-05-09 12:25:02 51°9.922 2°36.507 177.7 13.7 178 17.4
2007-05-09 12:25:06 51°9.907 2°36.508 176.4 13.7 179 17.4
2007-05-09 12:25:11 51°9.888 2°36.509 175.5 13.6 177 17.2
2007-05-09 12:25:16 51°9.87 2°36.511 175.1 13.7 177 17.5
2007-05-09 12:25:22 51°9.847 2°36.513 174.2 13.7 176 17.2
2007-05-09 12:25:26 51°9.832 2°36.515 173.9 13.6 176 17.1
2007-05-09 12:25:31 51°9.813 2°36.517 173 13.5 176 17.4
2007-05-09 12:25:36 51°9.794 2°36.519 173 13.5 176 17
2007-05-09 12:25:41 51°9.775 2°36.521 173 13.7 177 17.4
2007-05-09 12:25:46 51°9.756 2°36.522 173.3 13.6 177 16.9
2007-05-09 12:25:51 51°9.738 2°36.524 174 13.6 177 17.1
2007-05-09 12:25:56 51°9.719 2°36.526 174.1 13.6 177 16.7
2007-05-09 12:26:01 51°9.7 2°36.528 173.7 13.6 177 16.9
2007-05-09 12:26:06 51°9.681 2°36.53 173.7 13.6 177 16.7
2007-05-09 12:26:11 51°9.662 2°36.531 173.9 13.6 176 16.7
2007-05-09 12:26:16 51°9.644 2°36.533 174.1 13.6 177 16.2
2007-05-09 12:26:21 51°9.625 2°36.535 173.9 13.6 177 16.2
2007-05-09 12:26:26 51°9.606 2°36.536 174.1 13.6 178 15.9
2007-05-09 12:26:31 51°9.587 2°36.538 174.7 13.6 175 15.8
2007-05-09 12:26:37 51°9.564 2°36.54 174 13.6 177 15.8
2007-05-09 12:26:41 51°9.549 2°36.542 173.1 13.6 177 15.7
2007-05-09 12:26:46 51°9.531 2°36.543 174.1 13.7 177 16
2007-05-09 12:26:51 51°9.512 2°36.545 174.5 13.7 177 15.5
2007-05-09 12:26:57 51°9.489 2°36.547 174.3 13.7 177 15.4
2007-05-09 12:27:01 51°9.473 2°36.548 174 13.6 177 15.5
2007-05-09 12:27:06 51°9.455 2°36.55 174.1 13.6 177 15.1
2007-05-09 12:27:11 51°9.436 2°36.551 174.2 13.7 177 15.1
2007-05-09 12:27:17 51°9.413 2°36.554 174.1 13.8 176 15.3
2007-05-09 12:27:22 51°9.394 2°36.555 173.8 13.6 178 15.5
2007-05-09 12:27:26 51°9.379 2°36.556 174.3 13.6 177 15.5
2007-05-09 12:27:31 51°9.36 2°36.558 174.8 13.6 177 15.4
2007-05-09 12:27:36 51°9.341 2°36.559 174.7 13.7 178 15.4
2007-05-09 12:27:41 51°9.322 2°36.56 175.3 13.7 177 15.5
2007-05-09 12:27:46 51°9.303 2°36.562 175.3 13.6 176 15.4
2007-05-09 12:27:51 51°9.284 2°36.564 175.1 13.6 174 15.1
2007-05-09 12:27:56 51°9.266 2°36.569 173.1 13.4 171 14.9
2007-05-09 12:28:01 51°9.248 2°36.573 170.6 12.8 171 14.6
2007-05-09 12:28:06 51°9.231 2°36.579 169 12.1 168 14.2
2007-05-09 12:28:11 51°9.216 2°36.585 166.9 11.5 166 13.8
2007-05-09 12:28:16 51°9.201 2°36.591 164.4 11 166 13.6
2007-05-09 12:28:21 51°9.187 2°36.597 163.3 10.7 164 13.3
2007-05-09 12:28:27 51°9.17 2°36.605 162.5 10.2 163 13
2007-05-09 12:28:31 51°9.16 2°36.611 160.9 9.6 161 12.7
2007-05-09 12:28:37 51°9.147 2°36.62 159.2 8.9 158 12.4
2007-05-09 12:28:41 51°9.138 2°36.626 156.7 8.1 155 12.1
2007-05-09 12:28:46 51°9.129 2°36.634 153.2 7.5 151 12
2007-05-09 12:28:51 51°9.122 2°36.642 148.4 6.7 148 11.8
2007-05-09 12:28:57 51°9.113 2°36.652 144 6.1 143 11.7
2007-05-09 12:29:01 51°9.108 2°36.658 140 5.8 140 11.5
2007-05-09 12:29:06 51°9.103 2°36.666 135.9 5.4 136 11.3
2007-05-09 12:29:11 51°9.098 2°36.675 132 5.1 131 11.3
2007-05-09 12:29:17 51°9.093 2°36.684 126.9 4.7 125 11.2
2007-05-09 12:29:22 51°9.089 2°36.693 121.5 4.4 121 11.1
2007-05-09 12:29:26 51°9.087 2°36.699 116.2 4.1 116 11
2007-05-09 12:29:31 51°9.086 2°36.707 111 3.9 112 11
2007-05-09 12:29:36 51°9.085 2°36.715 105.5 3.6 103 10.9
2007-05-09 12:29:41 51°9.084 2°36.723 100.4 3.6 98 10.8
2007-05-09 12:29:46 51°9.084 2°36.731 95.3 3.5 89 10.8
2007-05-09 12:29:51 51°9.085 2°36.739 89.2 3.6 81 10.7
2007-05-09 12:29:56 51°9.086 2°36.747 82.2 3.7 74 10.7
2007-05-09 12:30:01 51°9.087 2°36.754 75 3.9 67 10.7
2007-05-09 12:30:06 51°9.09 2°36.762 68.9 4.2 66 10.7
2007-05-09 12:30:11 51°9.093 2°36.771 65.7 4.3 62 10.6
2007-05-09 12:30:16 51°9.096 2°36.78 63.9 4.6 64 10.7
2007-05-09 12:30:21 51°9.099 2°36.789 63.7 4.7 63 10.7
2007-05-09 12:30:26 51°9.102 2°36.799 64.5 4.9 67 10.7
2007-05-09 12:30:31 51°9.104 2°36.809 66.3 5.1 68 10.7
2007-05-09 12:30:36 51°9.106 2°36.82 68.2 5.3 70 10.7
2007-05-09 12:30:41 51°9.109 2°36.831 70.3 5.4 71 10.7
2007-05-09 12:30:46 51°9.111 2°36.843 71.9 5.4 72 10.7
2007-05-09 12:30:51 51°9.113 2°36.854 73.2 5.6 73 10.7
2007-05-09 12:30:57 51°9.116 2°36.869 74.3 5.7 75 10.7
2007-05-09 12:31:01 51°9.117 2°36.879 75.4 5.8 76 10.7
2007-05-09 12:31:06 51°9.119 2°36.891 76.2 5.8 77 10.6
2007-05-09 12:31:11 51°9.121 2°36.904 77.4 5.9 79 10.6
2007-05-09 12:31:17 51°9.122 2°36.92 78.2 6 79 10.6
2007-05-09 12:31:21 51°9.124 2°36.93 78.6 6 79 10.6
2007-05-09 12:31:26 51°9.125 2°36.943 78.7 6.1 79 10.5
2007-05-09 12:31:31 51°9.127 2°36.956 79.1 6.2 79 10.5
2007-05-09 12:31:37 51°9.129 2°36.972 79.4 6.2 79 10.6
2007-05-09 12:31:41 51°9.131 2°36.983 79.4 6.2 78 10.6
2007-05-09 12:31:46 51°9.132 2°36.997 78.9 6.2 78 10.4
2007-05-09 12:31:51 51°9.135 2°37.01 78.5 6.1 77 10.4
2007-05-09 12:31:56 51°9.136 2°37.023 78.3 5.8 78 10.4
2007-05-09 12:32:01 51°9.138 2°37.035 77.9 5.7 78 10.4
2007-05-09 12:32:06 51°9.14 2°37.048 77.6 5.6 78 10.4
2007-05-09 12:32:11 51°9.142 2°37.059 77.5 5.4 78 10.4
2007-05-09 12:32:16 51°9.143 2°37.071 77.3 5.3 78 10.4
2007-05-09 12:32:22 51°9.145 2°37.084 77.6 5.1 78 10.5
2007-05-09 12:32:26 51°9.146 2°37.092 78 5 79 10.4
2007-05-09 12:32:31 51°9.147 2°37.103 78.4 4.9 79 10.3
2007-05-09 12:32:36 51°9.148 2°37.114 79 4.7 82 10.3
2007-05-09 12:32:41 51°9.149 2°37.124 79.9 4.5 81 10.3
2007-05-09 12:32:47 51°9.15 2°37.135 80.6 4.4 84 10.3
2007-05-09 12:32:51 51°9.15 2°37.142 81.8 4.1 84 10.3
2007-05-09 12:32:57 51°9.151 2°37.152 82.7 3.7 86 10.4
2007-05-09 12:33:01 51°9.151 2°37.158 84.1 3.2 88 10.2
2007-05-09 12:33:06 51°9.151 2°37.165 85.1 2.8 91 10.3
2007-05-09 12:33:11 51°9.151 2°37.17 85.7 2.3 90 10.4
2007-05-09 12:33:17 51°9.151 2°37.175 86.1 1.9 94 10.3
2007-05-09 12:33:21 51°9.151 2°37.178 86.2 1.4 95 10.3
2007-05-09 12:33:26 51°9.151 2°37.18 86.2 1 107 10.4
2007-05-09 12:33:31 51°9.151 2°37.181 86.2 0.6 112 10.3
2007-05-09 12:33:37 51°9.15 2°37.182 86.2 0.5 130 10.3
2007-05-09 12:33:41 51°9.15 2°37.183 85.6 0.5 127 10.3
2007-05-09 12:33:46 51°9.15 2°37.184 85 0.4 118 10.3
2007-05-09 12:33:51 51°9.149 2°37.185 84.1 0.5 124 10.2
2007-05-09 12:33:57 51°9.149 2°37.186 83.1 0.5 124 10.2
2007-05-09 12:34:01 51°9.149 2°37.186 82.1 0.4 119 10.3
2007-05-09 12:34:06 51°9.148 2°37.187 80.9 0.5 124 10.3
2007-05-09 12:34:11 51°9.148 2°37.188 79.8 0.5 118 10.2
2007-05-09 12:34:17 51°9.147 2°37.189 78.7 0.5 119 10.3
2007-05-09 12:34:21 51°9.146 2°37.19 77.7 0.5 120 10.2
2007-05-09 12:34:26 51°9.146 2°37.19 77 0.5 123 10.2
2007-05-09 12:34:31 51°9.146 2°37.191 76.1 0.5 123 10.3
2007-05-09 12:34:36 51°9.145 2°37.192 75.3 0.6 126 10.3
2007-05-09 12:34:42 51°9.145 2°37.194 74.2 0.4 118 10.2
2007-05-09 12:34:46 51°9.145 2°37.194 74 0.5 118 10.2
2007-05-09 12:34:51 51°9.145 2°37.196 73.1 0.5 113 10.2
2007-05-09 12:34:56 51°9.145 2°37.197 72.6 0.5 115 10.2
2007-05-09 12:35:01 51°9.144 2°37.197 72.2 0.4 107 10.3
2007-05-09 12:35:06 51°9.144 2°37.199 71.6 0.5 114 10.2
2007-05-09 12:35:11 51°9.144 2°37.199 71.1 0.5 115 10.2
2007-05-09 12:35:17 51°9.144 2°37.201 70.4 0.4 108 10.3
2007-05-09 12:35:21 51°9.144 2°37.202 70 0.5 115 10.2
2007-05-09 12:35:26 51°9.144 2°37.202 69.5 0.4 104 10.2
2007-05-09 12:35:31 51°9.143 2°37.203 68.9 0.5 111 10.3
2007-05-09 12:35:37 51°9.143 2°37.204 68.4 0.4 101 10.2
2007-05-09 12:35:41 51°9.143 2°37.205 68.2 0.5 110 10.1
2007-05-09 12:35:46 51°9.143 2°37.206 67.8 0.3 102 10.2
2007-05-09 12:35:51 51°9.143 2°37.207 67.1 0.4 116 10.2
2007-05-09 12:35:57 51°9.143 2°37.208 66.7 0.3 100 10.2
2007-05-09 12:36:01 51°9.143 2°37.208 66.1 0.4 111 10.2
2007-05-09 12:36:06 51°9.142 2°37.209 65.4 0.4 101 10.2
2007-05-09 12:36:11 51°9.141 2°37.209 65.1 0.4 107 10.2
2007-05-09 12:36:17 51°9.141 2°37.21 64.5 0.4 112 10.1
2007-05-09 12:36:21 51°9.141 2°37.21 64.1 0.2 83 10.1
2007-05-09 12:36:26 51°9.141 2°37.211 63.6 0.3 110 10.1
2007-05-09 12:36:31 51°9.141 2°37.212 63 0.2 94 10.2
2007-05-09 12:36:36 51°9.141 2°37.212 62.7 0.2 111 10.2
2007-05-09 12:36:42 51°9.141 2°37.213 61.9 0.3 101 10.3
2007-05-09 12:36:46 51°9.14 2°37.214 61.3 0.3 106 10.2
2007-05-09 12:36:51 51°9.14 2°37.214 60.8 0.2 93 10.2
2007-05-09 12:36:56 51°9.14 2°37.215 60.2 0.2 103 10.2
2007-05-09 12:37:02 51°9.139 2°37.215 59.7 0.3 115 10.2
2007-05-09 12:37:06 51°9.139 2°37.216 59.2 0.3 109 10.3
2007-05-09 12:37:11 51°9.139 2°37.216 58.7 0.2 96 10.2
2007-05-09 12:37:17 51°9.139 2°37.217 58.1 0.2 111 10.2
2007-05-09 12:37:21 51°9.139 2°37.217 57.3 0.2 97 10.2
2007-05-09 12:37:26 51°9.139 2°37.217 56.9 0.2 111 10.2